Tampico, Montana
Current Conditions -  °F | °C
As of 1:53 PM on Sunday 23 Nov 2014 (Local Time) from KGGW Reporting Station
Light Snow Light Snow  
Wind Chill: 14°   Ceiling: 5500
Heat Index: 27°   Visibility: 6mi
Dew Point: 19°   Wind: 17mph
Humidity: 72%   Direction: 330°NNW
Pressure: 29.81"   Gusts: NA
Location:  48.3775°N, 106.613°W
Report Text: KGGW 232053Z AUTO 33015KT 6SM -SN OVC055 M03/M07 A2981 RMK AO2 SLP122 P0000 60000 T10281072 58004
Loading
Personal Weather Stations






























Interactive Weather Map New forecast layout! Learn more

10-Day Weather Forecast

Advertisements
Track Severe Weather on mobile